Time;durP1;ratioP1;P1;durP2;ratioP2;P2;SDS_P1;SDS_P2;PMS_P1;PMS_P2;Temp;Humidity;BMP_temperature;BMP_pressure;BME280_temperature;BME280_humidity;BME280_pressure;Samples;Min_cycle;Max_cycle;Signal;HPM_P1;HPM_P2
2022/03/18 00:00:24;;;;;;;36.93;26.37;;;9.10;75.70;;;;;;5003167;28;20623;-70
2022/03/18 00:02:53;;;;;;;37.23;27.80;;;9.10;75.50;;;;;;5003726;28;20218;-70
2022/03/18 00:05:21;;;;;;;40.47;28.30;;;9.10;75.70;;;;;;5023433;28;20567;-70
2022/03/18 00:07:49;;;;;;;42.77;30.53;;;9.10;76.00;;;;;;5025523;28;20629;-70
2022/03/18 00:10:18;;;;;;;40.33;27.97;;;9.00;76.10;;;;;;5007498;28;20207;-70
2022/03/18 00:12:52;;;;;;;40.33;29.87;;;9.00;76.50;;;;;;5006531;28;20313;-70
2022/03/18 00:15:21;;;;;;;39.13;30.30;;;8.90;76.80;;;;;;5020374;28;20211;-70
2022/03/18 00:17:49;;;;;;;39.33;27.90;;;8.90;76.90;;;;;;5020789;28;20220;-70
2022/03/18 00:20:16;;;;;;;44.73;28.80;;;8.90;77.00;;;;;;5025765;28;20207;-70
2022/03/18 00:22:45;;;;;;;39.27;29.33;;;8.90;77.20;;;;;;5018259;28;20541;-70
2022/03/18 00:25:13;;;;;;;40.77;27.00;;;8.90;77.30;;;;;;5035427;28;20203;-70
2022/03/18 00:27:42;;;;;;;38.50;26.77;;;8.90;77.40;;;;;;5034081;28;20218;-70
2022/03/18 00:30:14;;;;;;;36.90;24.93;;;8.80;77.40;;;;;;4982701;28;20249;-70
2022/03/18 00:32:43;;;;;;;35.73;25.83;;;8.80;77.50;;;;;;5005238;28;20215;-70
2022/03/18 00:35:30;;;;;;;44.30;27.37;;;8.80;77.60;;;;;;5029217;28;20207;-70
2022/03/18 00:37:57;;;;;;;41.43;28.77;;;8.70;77.70;;;;;;5027494;28;20200;-70
2022/03/18 00:40:24;;;;;;;37.80;27.87;;;8.70;77.70;;;;;;5021523;28;20262;-70
2022/03/18 00:42:51;;;;;;;42.67;28.40;;;8.70;77.60;;;;;;5024206;28;20236;-70
2022/03/18 00:45:18;;;;;;;40.87;28.90;;;8.70;77.70;;;;;;5026636;28;20210;-70
2022/03/18 00:53:17;;;;;;;50.20;33.03;;;8.60;78.20;;;;;;5000577;28;20330;-69
2022/03/18 00:55:44;;;;;;;48.67;33.30;;;8.50;78.50;;;;;;5031887;28;20278;-69
2022/03/18 00:58:11;;;;;;;41.60;30.43;;;8.50;78.90;;;;;;5034081;28;20221;-69
2022/03/18 01:00:38;;;;;;;49.30;32.07;;;8.60;79.10;;;;;;5015102;28;20235;-69
2022/03/18 01:03:06;;;;;;;48.47;32.50;;;8.60;79.00;;;;;;5026755;28;20612;-69
2022/03/18 01:05:34;;;;;;;40.60;30.43;;;8.60;78.90;;;;;;5021342;28;20257;-69
2022/03/18 01:08:01;;;;;;;45.33;30.27;;;8.60;78.90;;;;;;5022782;28;20204;-69
2022/03/18 01:10:28;;;;;;;47.97;32.70;;;8.60;78.70;;;;;;5020021;28;20534;-69
2022/03/18 01:12:55;;;;;;;46.67;34.93;;;8.70;78.60;;;;;;5024089;28;20648;-69
2022/03/18 01:15:22;;;;;;;45.23;30.53;;;8.70;78.60;;;;;;5020585;28;20215;-69
2022/03/18 01:17:50;;;;;;;44.17;30.93;;;8.70;78.80;;;;;;5003898;28;20225;-69
2022/03/18 01:20:17;;;;;;;43.80;30.20;;;8.70;79.00;;;;;;5018081;28;20199;-69
2022/03/18 01:22:44;;;;;;;38.97;27.83;;;8.70;79.00;;;;;;5026209;28;20235;-69
2022/03/18 01:25:11;;;;;;;38.67;28.67;;;8.70;79.20;;;;;;5016340;28;20590;-70
2022/03/18 01:27:39;;;;;;;41.93;28.07;;;8.70;79.20;;;;;;5025157;28;20207;-70
2022/03/18 01:30:08;;;;;;;42.00;28.07;;;8.70;80.00;;;;;;5022533;28;20207;-70
2022/03/18 01:32:35;;;;;;;43.20;30.93;;;8.70;79.60;;;;;;5018078;28;20200;-70
2022/03/18 01:35:02;;;;;;;39.93;29.50;;;8.70;79.60;;;;;;5016249;28;20226;-70
2022/03/18 01:37:29;;;;;;;45.67;32.43;;;8.60;79.50;;;;;;5023008;28;20213;-70
2022/03/18 01:39:56;;;;;;;45.27;32.23;;;8.70;79.50;;;;;;5006648;28;20216;-70
2022/03/18 01:42:23;;;;;;;57.80;35.43;;;8.60;79.50;;;;;;5005816;28;20694;-70
2022/03/18 01:44:51;;;;;;;42.03;29.70;;;8.60;80.00;;;;;;5025601;28;20649;-70
2022/03/18 01:47:18;;;;;;;41.90;28.27;;;8.60;80.60;;;;;;5027055;28;20504;-70
2022/03/18 01:49:46;;;;;;;44.53;31.27;;;8.60;80.20;;;;;;5027555;28;20201;-70
2022/03/18 01:52:13;;;;;;;39.13;28.13;;;8.50;79.40;;;;;;5016280;28;20215;-70
2022/03/18 01:54:49;;;;;;;46.13;29.13;;;8.50;79.20;;;;;;5032046;28;20211;-70
2022/03/18 01:57:19;;;;;;;42.23;29.47;;;8.50;79.30;;;;;;5025531;28;20501;-70
2022/03/18 01:59:47;;;;;;;47.57;30.87;;;8.50;79.40;;;;;;5015454;28;20214;-70
2022/03/18 02:02:15;;;;;;;48.83;31.67;;;8.50;79.40;;;;;;5015953;28;20762;-70
2022/03/18 02:04:46;;;;;;;50.87;33.57;;;8.50;79.50;;;;;;5000701;28;20219;-70
2022/03/18 02:07:14;;;;;;;50.47;34.40;;;8.60;79.60;;;;;;5000169;28;20210;-70
2022/03/18 02:09:41;;;;;;;45.67;33.83;;;8.60;79.70;;;;;;5020755;28;20207;-70
2022/03/18 02:12:12;;;;;;;49.57;33.70;;;8.60;79.70;;;;;;5021755;28;20217;-70
2022/03/18 02:14:43;;;;;;;56.80;34.23;;;8.70;79.70;;;;;;5024499;28;20215;-70
2022/03/18 02:17:12;;;;;;;47.13;32.93;;;8.80;79.50;;;;;;5024045;28;20222;-70
2022/03/18 02:19:41;;;;;;;51.27;35.60;;;8.80;79.30;;;;;;5026944;28;20269;-70
2022/03/18 02:22:35;;;;;;;49.60;34.33;;;8.90;79.00;;;;;;5017590;28;20231;-70
2022/03/18 02:25:02;;;;;;;47.70;34.23;;;8.90;79.10;;;;;;5019727;28;20199;-70
2022/03/18 02:27:29;;;;;;;43.67;32.03;;;8.90;79.40;;;;;;5002508;28;20540;-69
2022/03/18 02:29:56;;;;;;;43.50;30.73;;;8.90;79.40;;;;;;5022131;28;20211;-69
2022/03/18 02:32:24;;;;;;;45.90;31.87;;;8.90;79.40;;;;;;5030130;28;20229;-69
2022/03/18 02:34:50;;;;;;;47.90;34.17;;;8.90;79.60;;;;;;5035125;28;20210;-69
2022/03/18 02:37:18;;;;;;;42.40;31.33;;;8.90;79.60;;;;;;5023997;28;20199;-69
2022/03/18 02:39:44;;;;;;;39.23;31.90;;;8.90;79.60;;;;;;5024894;28;20213;-69
2022/03/18 02:42:11;;;;;;;53.53;34.40;;;8.90;79.60;;;;;;5030274;28;20231;-69
2022/03/18 02:44:38;;;;;;;45.37;32.17;;;8.90;79.60;;;;;;5028778;28;20234;-69
2022/03/18 02:47:06;;;;;;;45.70;33.47;;;8.90;79.70;;;;;;5027474;28;20218;-69
2022/03/18 02:49:33;;;;;;;46.67;33.43;;;8.90;79.90;;;;;;5023375;28;20212;-69
2022/03/18 02:52:00;;;;;;;60.20;37.43;;;8.80;80.00;;;;;;5006458;28;20207;-69
2022/03/18 02:54:27;;;;;;;47.30;34.30;;;8.80;80.00;;;;;;5007972;28;20633;-69
2022/03/18 02:56:54;;;;;;;45.03;33.60;;;8.80;80.00;;;;;;5014379;28;20215;-69
2022/03/18 02:59:21;;;;;;;48.30;31.63;;;8.80;80.70;;;;;;5019112;28;20226;-69
2022/03/18 03:01:48;;;;;;;42.03;32.17;;;8.80;80.00;;;;;;5017601;28;20298;-69
2022/03/18 03:04:17;;;;;;;44.53;33.27;;;8.80;79.90;;;;;;5018799;28;20223;-69
2022/03/18 03:09:30;;;;;;;52.37;33.63;;;8.70;79.80;;;;;;5025875;28;20214;-69
2022/03/18 03:11:57;;;;;;;41.90;32.97;;;8.80;79.70;;;;;;5030328;28;20207;-69
2022/03/18 03:14:24;;;;;;;48.10;33.90;;;8.70;79.70;;;;;;5029120;28;20637;-69
2022/03/18 03:16:51;;;;;;;49.10;34.67;;;8.70;79.50;;;;;;5027917;28;20207;-69
2022/03/18 03:19:18;;;;;;;44.80;32.70;;;8.70;79.30;;;;;;5024482;28;20665;-69
2022/03/18 03:21:45;;;;;;;47.70;35.03;;;8.70;79.00;;;;;;5024045;28;20604;-69
2022/03/18 03:24:13;;;;;;;47.20;34.60;;;8.70;79.00;;;;;;5022477;28;20203;-69
2022/03/18 03:26:40;;;;;;;51.00;35.30;;;8.70;79.00;;;;;;5021133;28;20237;-69
2022/03/18 03:29:07;;;;;;;53.13;35.73;;;8.70;78.80;;;;;;5019491;28;20202;-69
2022/03/18 03:31:34;;;;;;;53.63;35.70;;;8.70;78.80;;;;;;5017508;28;20216;-69
2022/03/18 03:34:02;;;;;;;48.33;34.97;;;8.70;78.90;;;;;;5016493;28;20257;-69
2022/03/18 03:36:29;;;;;;;46.60;32.93;;;8.70;78.90;;;;;;5016488;28;20218;-69
2022/03/18 03:38:56;;;;;;;56.77;36.27;;;8.60;79.00;;;;;;5023066;28;20207;-69
2022/03/18 03:41:24;;;;;;;48.70;34.33;;;8.60;79.10;;;;;;5018821;28;20230;-69
2022/03/18 03:43:51;;;;;;;44.70;33.53;;;8.60;79.20;;;;;;5006000;28;20199;-69
2022/03/18 03:46:18;;;;;;;45.73;34.47;;;8.60;79.30;;;;;;5022364;28;20632;-69
2022/03/18 03:48:45;;;;;;;52.87;34.20;;;8.60;79.40;;;;;;5024600;28;20242;-69
2022/03/18 03:51:12;;;;;;;52.60;34.83;;;8.60;79.50;;;;;;5025067;28;20640;-69
2022/03/18 03:53:39;;;;;;;46.80;32.77;;;8.60;79.60;;;;;;5023476;28;20541;-69
2022/03/18 03:56:06;;;;;;;50.83;33.97;;;8.60;79.80;;;;;;5006849;28;20259;-69
2022/03/18 03:58:33;;;;;;;52.27;35.30;;;8.60;80.20;;;;;;5017183;28;20207;-69
2022/03/18 04:01:00;;;;;;;55.57;36.87;;;8.60;80.20;;;;;;5018069;28;20257;-69
2022/03/18 04:03:28;;;;;;;51.00;35.43;;;8.60;80.20;;;;;;5029325;28;20204;-69
2022/03/18 04:05:55;;;;;;;52.80;35.90;;;8.60;80.30;;;;;;5028231;28;20200;-69
2022/03/18 04:08:22;;;;;;;51.77;36.50;;;8.60;80.40;;;;;;5022235;28;20211;-69
2022/03/18 04:10:49;;;;;;;54.93;37.73;;;8.60;80.40;;;;;;5020278;28;20265;-69
2022/03/18 04:13:16;;;;;;;47.50;33.27;;;8.60;80.40;;;;;;5021034;28;20198;-69
2022/03/18 04:15:43;;;;;;;50.07;35.97;;;8.70;80.60;;;;;;5023138;28;20206;-69
2022/03/18 04:18:11;;;;;;;49.80;36.93;;;8.70;80.80;;;;;;5025074;28;20213;-69
2022/03/18 04:20:38;;;;;;;49.83;37.23;;;8.70;80.80;;;;;;5029068;28;20629;-69
2022/03/18 04:23:05;;;;;;;57.00;37.80;;;8.70;80.70;;;;;;5032847;28;20221;-69
2022/03/18 04:25:32;;;;;;;57.10;37.70;;;8.70;80.70;;;;;;5017554;28;20205;-69
2022/03/18 04:27:59;;;;;;;61.53;37.53;;;8.70;80.70;;;;;;5036485;28;20201;-69
2022/03/18 04:30:26;;;;;;;52.50;37.50;;;8.70;80.50;;;;;;5021133;28;20219;-69
2022/03/18 04:32:53;;;;;;;50.57;37.73;;;8.70;80.60;;;;;;5036761;28;20229;-69
2022/03/18 04:35:21;;;;;;;52.40;38.10;;;8.70;80.70;;;;;;5003268;28;20321;-69
2022/03/18 04:37:49;;;;;;;56.60;39.30;;;8.70;80.60;;;;;;5010162;28;20221;-69
2022/03/18 04:40:16;;;;;;;61.70;39.37;;;8.70;80.40;;;;;;5038569;28;21035;-69
2022/03/18 04:42:44;;;;;;;55.83;39.63;;;8.70;80.30;;;;;;5019239;28;20304;-69
2022/03/18 04:45:13;;;;;;;55.80;41.20;;;8.70;80.30;;;;;;5003504;28;20291;-69
2022/03/18 04:47:40;;;;;;;54.97;39.27;;;8.70;80.40;;;;;;5003010;28;20243;-69
2022/03/18 04:50:08;;;;;;;56.73;40.33;;;8.70;80.50;;;;;;5028970;28;20594;-69
2022/03/18 04:52:36;;;;;;;60.20;40.63;;;8.70;80.40;;;;;;5014281;28;20603;-69
2022/03/18 04:55:04;;;;;;;61.83;40.10;;;8.70;80.30;;;;;;5032073;28;20204;-69
2022/03/18 04:57:32;;;;;;;55.33;40.17;;;8.70;80.20;;;;;;5014495;28;20210;-69
2022/03/18 04:59:59;;;;;;;58.90;40.50;;;8.80;80.40;;;;;;5012745;28;20213;-69
2022/03/18 05:02:26;;;;;;;55.20;37.47;;;8.70;80.30;;;;;;5014534;28;20248;-69
2022/03/18 05:04:54;;;;;;;62.10;41.30;;;8.70;80.10;;;;;;5019641;28;20203;-69
2022/03/18 05:07:21;;;;;;;56.30;39.73;;;8.70;80.20;;;;;;5026389;28;20203;-69
2022/03/18 05:09:48;;;;;;;63.77;41.20;;;8.70;80.30;;;;;;5029338;28;20207;-69
2022/03/18 05:12:17;;;;;;;60.30;39.70;;;8.70;80.60;;;;;;5015363;28;20286;-69
2022/03/18 05:14:51;;;;;;;69.53;41.73;;;8.70;80.70;;;;;;5019606;28;20209;-69
2022/03/18 05:17:18;;;;;;;66.30;41.17;;;8.60;80.80;;;;;;5021669;28;20207;-69
2022/03/18 05:19:45;;;;;;;61.67;41.70;;;8.60;80.90;;;;;;5023293;28;20212;-69
2022/03/18 05:22:12;;;;;;;66.97;41.63;;;8.70;80.90;;;;;;5023063;28;20227;-69
2022/03/18 05:24:39;;;;;;;63.87;43.07;;;8.70;80.80;;;;;;5025910;28;20206;-69
2022/03/18 05:27:06;;;;;;;64.13;42.10;;;8.60;80.60;;;;;;5027693;28;20206;-69
2022/03/18 05:29:35;;;;;;;71.37;44.53;;;8.60;80.70;;;;;;5006040;28;20209;-69
2022/03/18 05:32:03;;;;;;;60.27;42.07;;;8.60;80.70;;;;;;5017786;28;20286;-69
2022/03/18 05:34:30;;;;;;;68.33;42.53;;;8.60;80.70;;;;;;5024224;28;20207;-69
2022/03/18 05:36:57;;;;;;;66.30;43.63;;;8.60;80.80;;;;;;5019507;28;20619;-69
2022/03/18 05:39:24;;;;;;;58.03;40.47;;;8.60;80.90;;;;;;4998043;28;20663;-69
2022/03/18 05:41:51;;;;;;;61.90;41.23;;;8.60;81.00;;;;;;5016858;28;20233;-69
2022/03/18 05:44:19;;;;;;;61.37;40.33;;;8.70;81.10;;;;;;5023520;28;20210;-69
2022/03/18 05:46:46;;;;;;;58.50;42.00;;;8.70;81.30;;;;;;5029310;28;20207;-69
2022/03/18 05:49:14;;;;;;;56.90;40.67;;;8.70;81.40;;;;;;5028077;28;20222;-69
2022/03/18 05:51:41;;;;;;;55.50;39.20;;;8.70;81.70;;;;;;5027124;28;20199;-69
2022/03/18 05:54:09;;;;;;;65.10;41.40;;;8.70;81.90;;;;;;5024857;28;20195;-69
2022/03/18 05:56:52;;;;;;;58.60;40.40;;;8.80;82.20;;;;;;5008889;28;20205;-69
2022/03/18 05:59:25;;;;;;;54.87;39.90;;;8.80;82.40;;;;;;5029235;28;20629;-69
2022/03/18 06:01:54;;;;;;;56.37;41.07;;;8.80;82.40;;;;;;5029671;28;20328;-69
2022/03/18 06:04:22;;;;;;;62.90;41.20;;;8.80;82.40;;;;;;5024334;28;20716;-69
2022/03/18 06:06:49;;;;;;;57.80;38.97;;;8.80;82.40;;;;;;5019771;28;20602;-69
2022/03/18 06:12:03;;;;;;;66.53;39.93;;;8.90;82.50;;;;;;5019814;28;20208;-69
2022/03/18 06:14:32;;;;;;;62.07;39.67;;;8.90;82.70;;;;;;5021042;28;20234;-69
2022/03/18 06:17:02;;;;;;;57.13;40.23;;;9.00;82.70;;;;;;5015418;28;20305;-69
2022/03/18 06:19:30;;;;;;;55.27;38.47;;;9.10;82.80;;;;;;5025646;28;20195;-69
2022/03/18 06:21:58;;;;;;;62.47;39.57;;;9.10;82.90;;;;;;5010845;28;20233;-69
2022/03/18 06:24:26;;;;;;;60.10;41.27;;;9.20;82.60;;;;;;5027641;28;20210;-70
2022/03/18 06:26:53;;;;;;;64.03;40.67;;;9.20;82.60;;;;;;5029271;28;20208;-69
2022/03/18 06:29:21;;;;;;;57.50;37.37;;;9.30;82.40;;;;;;5030155;28;20649;-69
2022/03/18 06:31:49;;;;;;;53.17;36.57;;;9.40;82.30;;;;;;5008343;28;20521;-69
2022/03/18 06:34:17;;;;;;;52.50;35.97;;;9.50;82.00;;;;;;5024123;28;20211;-70
2022/03/18 06:36:45;;;;;;;52.60;34.07;;;9.60;81.80;;;;;;5025797;28;20327;-70
2022/03/18 06:39:12;;;;;;;45.10;32.03;;;9.70;81.80;;;;;;5019851;28;20257;-70
2022/03/18 06:41:40;;;;;;;39.33;27.87;;;9.70;81.60;;;;;;5017781;28;20203;-70
2022/03/18 06:44:08;;;;;;;41.93;29.07;;;9.80;81.30;;;;;;5019529;28;20223;-69
2022/03/18 06:46:36;;;;;;;41.17;28.83;;;9.90;80.60;;;;;;5020882;28;20208;-69
2022/03/18 06:49:04;;;;;;;41.53;30.60;;;9.90;80.50;;;;;;5022594;28;20505;-69
2022/03/18 06:51:31;;;;;;;38.17;27.70;;;10.00;80.40;;;;;;5030177;28;20212;-69
2022/03/18 06:53:59;;;;;;;42.27;27.97;;;10.10;80.60;;;;;;5028657;28;20199;-69
2022/03/18 06:56:27;;;;;;;43.03;32.50;;;10.20;80.50;;;;;;5028079;28;20207;-69
2022/03/18 06:58:54;;;;;;;54.10;34.10;;;10.20;80.60;;;;;;5026944;28;20207;-69
2022/03/18 07:01:21;;;;;;;41.67;30.83;;;10.30;81.00;;;;;;5025740;28;20323;-69
2022/03/18 07:03:49;;;;;;;45.40;31.03;;;10.40;81.00;;;;;;5027833;28;20227;-69
2022/03/18 07:06:16;;;;;;;42.30;30.67;;;10.50;80.90;;;;;;5015445;28;20203;-69
2022/03/18 07:08:44;;;;;;;41.27;29.07;;;10.50;80.40;;;;;;5015898;28;20207;-70
2022/03/18 07:11:13;;;;;;;38.17;26.90;;;10.70;80.20;;;;;;5036045;28;20238;-68
2022/03/18 07:13:45;;;;;;;35.67;25.87;;;10.70;79.90;;;;;;5019401;28;21012;-69
2022/03/18 07:18:58;;;;;;;32.07;24.30;;;10.90;78.40;;;;;;5032652;28;20286;-68
2022/03/18 07:21:25;;;;;;;33.73;24.00;;;11.00;78.50;;;;;;5028861;28;20208;-68
2022/03/18 07:23:53;;;;;;;32.70;23.03;;;11.20;78.70;;;;;;4990626;28;20240;-68
2022/03/18 07:26:21;;;;;;;25.43;19.70;;;11.30;78.50;;;;;;5025262;28;20217;-68
2022/03/18 07:28:48;;;;;;;25.13;18.97;;;11.50;77.10;;;;;;5024166;28;20197;-68
2022/03/18 07:31:15;;;;;;;23.53;17.50;;;11.60;75.90;;;;;;5024342;28;20548;-68
2022/03/18 07:33:42;;;;;;;23.17;16.63;;;11.80;75.00;;;;;;5027441;28;20283;-68
2022/03/18 07:36:09;;;;;;;29.47;16.03;;;12.00;73.70;;;;;;5003581;28;20211;-68
2022/03/18 07:38:36;;;;;;;22.00;15.67;;;12.10;73.60;;;;;;5019979;28;20209;-68
2022/03/18 07:41:03;;;;;;;24.27;15.83;;;12.20;72.70;;;;;;5018103;28;20209;-68
2022/03/18 07:43:30;;;;;;;27.67;16.70;;;12.30;70.20;;;;;;5016979;28;20668;-68
2022/03/18 07:45:58;;;;;;;24.83;15.73;;;12.40;69.60;;;;;;5017781;28;20219;-68
2022/03/18 07:48:26;;;;;;;20.80;15.03;;;12.40;70.40;;;;;;5015511;28;20204;-68
2022/03/18 07:50:54;;;;;;;22.47;15.87;;;12.50;71.60;;;;;;5030056;28;20242;-68
2022/03/18 07:53:22;;;;;;;23.37;16.80;;;12.60;69.10;;;;;;5030517;28;20617;-68
2022/03/18 07:55:49;;;;;;;22.27;16.87;;;12.60;68.70;;;;;;5028364;28;20219;-68
2022/03/18 07:58:16;;;;;;;19.77;16.60;;;12.60;69.30;;;;;;5026048;28;20207;-68
2022/03/18 08:00:43;;;;;;;26.03;17.70;;;12.70;66.90;;;;;;5019837;28;20260;-68
2022/03/18 08:03:11;;;;;;;22.53;15.53;;;12.80;67.70;;;;;;5005939;28;20302;-68
2022/03/18 08:05:40;;;;;;;26.43;16.37;;;12.80;69.10;;;;;;5020083;28;20224;-68
2022/03/18 08:08:07;;;;;;;24.37;16.87;;;12.90;68.50;;;;;;5020695;28;20224;-68
2022/03/18 08:10:35;;;;;;;23.23;17.43;;;13.00;66.90;;;;;;5019413;28;20211;-68
2022/03/18 08:13:02;;;;;;;23.93;16.70;;;13.00;66.40;;;;;;5010105;28;20247;-68
2022/03/18 08:15:29;;;;;;;20.77;15.87;;;13.10;66.80;;;;;;5016136;28;20655;-68
2022/03/18 08:17:57;;;;;;;21.10;15.73;;;13.20;66.70;;;;;;5028480;28;20219;-68
2022/03/18 08:20:25;;;;;;;22.73;15.77;;;13.20;66.00;;;;;;5032965;28;20285;-68
2022/03/18 08:22:53;;;;;;;20.37;15.70;;;13.30;65.30;;;;;;5012430;28;20231;-68
2022/03/18 08:25:20;;;;;;;22.67;15.93;;;13.50;65.90;;;;;;5019303;28;20209;-68
2022/03/18 08:27:49;;;;;;;21.67;15.40;;;13.50;64.40;;;;;;5024165;28;20221;-68
2022/03/18 08:30:16;;;;;;;21.13;16.10;;;13.60;65.30;;;;;;5023626;28;20200;-68
2022/03/18 08:32:44;;;;;;;29.97;17.13;;;13.70;65.40;;;;;;5026044;28;20696;-68
2022/03/18 08:35:11;;;;;;;22.57;16.63;;;13.80;64.80;;;;;;5023188;28;20207;-68
2022/03/18 08:37:56;;;;;;;23.40;16.17;;;13.80;63.70;;;;;;5028059;28;20199;-68
2022/03/18 08:40:32;;;;;;;26.53;16.27;;;13.90;64.90;;;;;;5021305;28;20219;-68
2022/03/18 08:43:02;;;;;;;27.20;17.27;;;13.90;64.20;;;;;;5024684;28;20251;-68
2022/03/18 08:45:30;;;;;;;23.53;16.17;;;14.00;65.10;;;;;;5017368;28;20523;-68
2022/03/18 08:47:57;;;;;;;21.53;16.43;;;14.00;64.80;;;;;;5031632;28;20211;-68
2022/03/18 08:50:24;;;;;;;24.80;16.90;;;14.10;64.00;;;;;;5017910;28;20222;-68
2022/03/18 08:52:54;;;;;;;25.97;16.53;;;14.10;63.80;;;;;;5005511;28;20216;-68
2022/03/18 08:55:22;;;;;;;22.27;16.27;;;14.20;63.60;;;;;;5009007;28;20628;-68
2022/03/18 08:57:49;;;;;;;23.87;16.03;;;14.20;63.20;;;;;;5027812;28;20204;-68
2022/03/18 09:00:17;;;;;;;21.70;15.47;;;14.20;63.10;;;;;;5021745;28;20576;-68
2022/03/18 09:02:46;;;;;;;22.30;15.67;;;14.30;62.80;;;;;;5023352;28;20228;-68
2022/03/18 09:05:13;;;;;;;20.60;15.73;;;14.30;63.10;;;;;;5026271;28;20610;-68
2022/03/18 09:07:41;;;;;;;18.20;16.17;;;14.30;63.30;;;;;;5021498;28;20203;-68
2022/03/18 09:10:10;;;;;;;22.03;15.70;;;14.40;62.50;;;;;;5026537;28;20283;-68
2022/03/18 09:12:44;;;;;;;24.37;16.93;;;14.40;64.00;;;;;;5021482;28;20296;-68
2022/03/18 09:15:12;;;;;;;21.70;16.50;;;14.50;63.60;;;;;;4997130;28;20216;-68
2022/03/18 09:17:39;;;;;;;20.27;16.70;;;14.60;64.00;;;;;;5005865;28;21142;-68
2022/03/18 09:20:07;;;;;;;22.03;15.77;;;14.70;63.40;;;;;;5033516;28;20266;-68
2022/03/18 09:22:34;;;;;;;22.40;16.87;;;14.80;62.90;;;;;;5031738;28;20197;-68
2022/03/18 09:25:02;;;;;;;25.90;16.90;;;14.90;62.60;;;;;;5030460;28;20209;-68
2022/03/18 09:27:29;;;;;;;24.37;16.80;;;14.90;62.90;;;;;;5027365;28;20214;-68
2022/03/18 09:29:59;;;;;;;30.40;16.17;;;15.00;62.30;;;;;;5022967;28;20194;-68
2022/03/18 09:32:31;;;;;;;20.10;15.37;;;15.00;62.10;;;;;;5021919;28;20215;-68
2022/03/18 09:34:58;;;;;;;19.53;16.33;;;15.10;60.90;;;;;;5024930;28;20215;-68
2022/03/18 09:37:29;;;;;;;23.40;16.97;;;15.10;61.20;;;;;;5023399;28;20217;-68
2022/03/18 09:39:56;;;;;;;20.93;16.37;;;15.20;61.40;;;;;;5023828;28;20277;-68
2022/03/18 09:42:59;;;;;;;22.50;16.20;;;15.20;61.40;;;;;;5018775;28;20637;-68
2022/03/18 09:45:30;;;;;;;24.30;16.37;;;15.20;60.70;;;;;;5014207;28;20203;-68
2022/03/18 09:47:59;;;;;;;18.13;15.17;;;15.20;60.80;;;;;;5015607;28;20205;-68
2022/03/18 09:50:29;;;;;;;23.10;16.07;;;15.20;62.10;;;;;;5013732;28;20225;-68
2022/03/18 09:52:57;;;;;;;19.93;15.70;;;15.20;62.70;;;;;;5013011;28;20213;-68
2022/03/18 09:55:25;;;;;;;18.53;15.23;;;15.20;61.90;;;;;;5018210;28;20205;-68
2022/03/18 09:57:53;;;;;;;18.83;15.60;;;15.30;61.10;;;;;;5019167;28;20589;-68
2022/03/18 10:00:26;;;;;;;22.30;14.93;;;15.30;60.40;;;;;;5023739;28;20207;-68
2022/03/18 10:03:17;;;;;;;22.40;14.90;;;15.30;60.80;;;;;;5022258;28;20215;-68
2022/03/18 10:05:54;;;;;;;15.83;12.97;;;15.30;60.50;;;;;;5014523;28;20295;-68
2022/03/18 10:08:21;;;;;;;21.10;13.10;;;15.40;59.00;;;;;;5020539;28;20198;-68
2022/03/18 10:10:49;;;;;;;17.50;12.63;;;15.40;58.60;;;;;;5023066;28;20209;-68
2022/03/18 10:13:16;;;;;;;15.03;12.23;;;15.40;57.50;;;;;;5026869;28;20296;-68
2022/03/18 10:15:46;;;;;;;14.23;11.47;;;15.40;57.00;;;;;;5031543;28;20512;-68
2022/03/18 10:18:14;;;;;;;16.43;12.23;;;15.50;56.20;;;;;;5031704;28;20662;-68
2022/03/18 10:20:45;;;;;;;20.70;12.37;;;15.50;56.00;;;;;;5033847;28;20234;-68
2022/03/18 10:23:15;;;;;;;16.40;12.57;;;15.50;57.50;;;;;;4997486;28;20249;-68
2022/03/18 10:25:50;;;;;;;16.60;12.60;;;15.60;57.80;;;;;;5017452;28;20214;-68
2022/03/18 10:28:43;;;;;;;16.67;12.53;;;15.60;57.30;;;;;;5017609;28;20596;-68
2022/03/18 10:31:23;;;;;;;17.67;11.57;;;15.60;56.60;;;;;;5027017;28;20640;-68
2022/03/18 10:37:13;;;;;;;12.47;10.80;;;15.50;56.10;;;;;;5023434;28;20214;-68
2022/03/18 10:39:42;;;;;;;15.87;11.57;;;15.50;55.20;;;;;;5022428;28;20222;-68
2022/03/18 10:42:16;;;;;;;13.47;11.03;;;15.50;55.50;;;;;;5013783;28;20338;-68
2022/03/18 10:44:45;;;;;;;15.03;10.40;;;15.50;56.40;;;;;;5018583;28;20250;-69
2022/03/18 10:47:30;;;;;;;15.43;10.50;;;15.60;55.90;;;;;;5020684;28;20652;-68
2022/03/18 10:50:00;;;;;;;11.87;10.33;;;15.60;55.20;;;;;;5019207;28;20215;-68
2022/03/18 10:52:28;;;;;;;13.60;10.93;;;15.60;55.30;;;;;;5018285;28;20626;-68
2022/03/18 10:55:25;;;;;;;16.17;10.47;;;15.70;54.90;;;;;;5018196;28;20226;-68
2022/03/18 10:57:53;;;;;;;14.73;9.97;;;15.80;54.40;;;;;;5023007;28;20215;-68
2022/03/18 11:00:26;;;;;;;15.13;9.30;;;16.00;55.40;;;;;;5015038;28;20598;-68
2022/03/18 11:02:58;;;;;;;13.17;8.80;;;16.30;54.20;;;;;;5030105;28;20217;-68
2022/03/18 11:05:29;;;;;;;12.57;10.10;;;16.50;51.80;;;;;;5012371;28;20211;-68
2022/03/18 11:07:59;;;;;;;9.63;8.63;;;16.60;51.50;;;;;;5000090;28;20226;-68
2022/03/18 11:13:14;;;;;;;13.43;9.00;;;16.60;47.40;;;;;;5022851;28;20211;-68
2022/03/18 11:15:45;;;;;;;13.93;8.67;;;16.60;48.20;;;;;;5030949;28;20211;-68
2022/03/18 11:18:14;;;;;;;9.83;8.00;;;16.70;48.10;;;;;;5000457;28;20254;-68
2022/03/18 11:20:43;;;;;;;11.63;7.77;;;16.70;48.80;;;;;;5001606;28;20591;-68
2022/03/18 11:23:16;;;;;;;10.47;8.30;;;16.90;47.80;;;;;;5035228;28;20207;-68
2022/03/18 11:25:48;;;;;;;9.50;7.97;;;17.00;45.90;;;;;;5029031;28;20234;-68
2022/03/18 11:28:17;;;;;;;10.13;7.93;;;17.10;45.90;;;;;;5023720;28;20565;-68
2022/03/18 11:30:45;;;;;;;11.77;8.83;;;17.10;45.90;;;;;;5021865;28;20279;-68
2022/03/18 11:33:15;;;;;;;10.40;7.70;;;17.10;47.00;;;;;;5002960;28;20211;-68
2022/03/18 11:35:48;;;;;;;11.50;8.40;;;17.00;46.90;;;;;;5024239;28;20684;-68
2022/03/18 11:38:28;;;;;;;11.83;8.60;;;16.80;47.50;;;;;;5025738;28;20671;-68
2022/03/18 11:40:58;;;;;;;14.60;9.10;;;16.70;47.80;;;;;;5025820;28;20221;-68
2022/03/18 11:43:48;;;;;;;12.20;8.07;;;16.50;48.00;;;;;;5029325;28;20222;-68
2022/03/18 11:46:16;;;;;;;10.43;8.50;;;16.40;47.90;;;;;;4998259;28;20211;-68
2022/03/18 11:48:46;;;;;;;8.80;7.83;;;16.20;48.40;;;;;;5031826;28;20290;-69
2022/03/18 11:51:40;;;;;;;11.03;8.50;;;16.10;49.20;;;;;;5015586;28;20210;-69
2022/03/18 11:54:16;;;;;;;12.67;8.57;;;16.00;49.40;;;;;;5013683;28;20236;-69
2022/03/18 11:56:54;;;;;;;10.57;7.63;;;16.00;48.60;;;;;;5019713;28;20751;-68
2022/03/18 11:59:27;;;;;;;11.57;7.63;;;15.90;48.80;;;;;;5016856;28;20218;-68
2022/03/18 12:02:02;;;;;;;9.40;7.90;;;15.80;49.00;;;;;;5020625;28;20236;-68
2022/03/18 12:04:48;;;;;;;9.63;7.93;;;15.70;50.00;;;;;;5020781;28;20230;-68
2022/03/18 12:07:38;;;;;;;11.57;8.00;;;15.70;49.40;;;;;;5028319;28;20202;-68
2022/03/18 12:10:10;;;;;;;14.97;9.33;;;15.60;50.20;;;;;;5026537;28;20205;-68
2022/03/18 12:12:44;;;;;;;12.80;8.00;;;15.60;50.30;;;;;;5023341;28;20204;-68
2022/03/18 12:15:20;;;;;;;8.57;7.43;;;15.60;50.90;;;;;;5029125;28;20604;-68
2022/03/18 12:17:53;;;;;;;10.10;7.90;;;15.60;50.40;;;;;;5015418;28;20219;-68
2022/03/18 12:20:28;;;;;;;12.20;7.77;;;15.50;49.30;;;;;;5002684;28;20226;-68
2022/03/18 12:22:57;;;;;;;11.07;7.23;;;15.50;50.30;;;;;;5015032;28;20219;-68
2022/03/18 12:25:24;;;;;;;9.27;7.30;;;15.40;51.50;;;;;;5016832;28;20269;-68
2022/03/18 12:27:53;;;;;;;8.63;7.20;;;15.40;51.20;;;;;;5017281;28;20198;-68
2022/03/18 12:30:23;;;;;;;12.83;7.60;;;15.40;50.40;;;;;;5018385;28;20213;-68
2022/03/18 12:32:58;;;;;;;11.97;8.23;;;15.40;51.30;;;;;;4998668;28;20192;-68
2022/03/18 12:35:36;;;;;;;12.87;7.50;;;15.40;51.10;;;;;;5021256;28;20208;-68
2022/03/18 12:38:18;;;;;;;13.37;7.53;;;15.40;51.40;;;;;;5019821;28;20212;-68
2022/03/18 12:40:54;;;;;;;13.37;7.87;;;15.40;51.30;;;;;;5023897;28;20215;-68
2022/03/18 12:43:22;;;;;;;12.70;7.43;;;15.50;49.90;;;;;;5024919;28;20207;-68
2022/03/18 12:45:50;;;;;;;11.63;7.27;;;15.50;50.50;;;;;;5020835;28;20202;-68
2022/03/18 12:48:20;;;;;;;11.13;7.70;;;15.50;49.60;;;;;;5021188;28;20210;-68
2022/03/18 12:50:54;;;;;;;11.80;8.07;;;15.50;51.40;;;;;;5020111;28;20214;-68
2022/03/18 12:53:24;;;;;;;11.93;8.17;;;15.60;50.80;;;;;;5014426;28;20297;-68
2022/03/18 12:56:00;;;;;;;9.70;7.07;;;15.50;49.60;;;;;;5019285;28;20200;-68
2022/03/18 12:58:39;;;;;;;9.43;7.83;;;15.50;49.00;;;;;;5033584;28;20901;-68
2022/03/18 13:01:27;;;;;;;11.23;7.90;;;15.40;49.80;;;;;;5032434;28;20243;-68
2022/03/18 13:03:55;;;;;;;12.40;8.07;;;15.40;50.40;;;;;;5030880;28;20660;-68